sensor_id;sensor_type;location;lat;lon;timestamp;temperature;humidity
26655;DHT22;14278;50.784;4.630;2022-10-19T00:01:51;13.10;99.90
26655;DHT22;14278;50.784;4.630;2022-10-19T00:04:17;13.30;99.90
26655;DHT22;14278;50.784;4.630;2022-10-19T00:06:44;13.00;99.90
26655;DHT22;14278;50.784;4.630;2022-10-19T00:09:13;13.10;99.90
26655;DHT22;14278;50.784;4.630;2022-10-19T00:11:42;13.10;99.90
26655;DHT22;14278;50.784;4.630;2022-10-19T00:14:12;13.00;99.90
26655;DHT22;14278;50.784;4.630;2022-10-19T00:16:39;13.10;99.90
26655;DHT22;14278;50.784;4.630;2022-10-19T00:19:08;13.00;99.90
26655;DHT22;14278;50.784;4.630;2022-10-19T00:21:34;12.90;99.90
26655;DHT22;14278;50.784;4.630;2022-10-19T00:24:02;12.80;99.90
26655;DHT22;14278;50.784;4.630;2022-10-19T00:26:28;12.60;99.90
26655;DHT22;14278;50.784;4.630;2022-10-19T00:28:54;12.80;99.90
26655;DHT22;14278;50.784;4.630;2022-10-19T00:31:20;12.40;99.90
26655;DHT22;14278;50.784;4.630;2022-10-19T00:33:46;12.10;99.90
26655;DHT22;14278;50.784;4.630;2022-10-19T00:36:20;11.90;99.90
26655;DHT22;14278;50.784;4.630;2022-10-19T00:38:47;12.10;99.90
26655;DHT22;14278;50.784;4.630;2022-10-19T00:41:14;12.20;99.90
26655;DHT22;14278;50.784;4.630;2022-10-19T00:46:33;12.60;99.90
26655;DHT22;14278;50.784;4.630;2022-10-19T00:49:03;13.00;99.90
26655;DHT22;14278;50.784;4.630;2022-10-19T00:51:32;12.70;99.90
26655;DHT22;14278;50.784;4.630;2022-10-19T00:54:00;12.40;99.90
26655;DHT22;14278;50.784;4.630;2022-10-19T00:56:27;12.60;99.90
26655;DHT22;14278;50.784;4.630;2022-10-19T00:58:54;12.70;99.90
26655;DHT22;14278;50.784;4.630;2022-10-19T01:01:21;12.80;99.90
26655;DHT22;14278;50.784;4.630;2022-10-19T01:03:48;12.70;99.90
26655;DHT22;14278;50.784;4.630;2022-10-19T01:06:16;12.60;99.90
26655;DHT22;14278;50.784;4.630;2022-10-19T01:08:42;12.60;99.90
26655;DHT22;14278;50.784;4.630;2022-10-19T01:11:25;12.40;99.90
26655;DHT22;14278;50.784;4.630;2022-10-19T01:14:08;12.60;99.90
26655;DHT22;14278;50.784;4.630;2022-10-19T01:23:08;12.20;99.90
26655;DHT22;14278;50.784;4.630;2022-10-19T01:28:18;12.50;99.90
26655;DHT22;14278;50.784;4.630;2022-10-19T01:34:00;12.40;99.90
26655;DHT22;14278;50.784;4.630;2022-10-19T01:36:42;12.40;99.90
26655;DHT22;14278;50.784;4.630;2022-10-19T01:39:21;12.40;99.90
26655;DHT22;14278;50.784;4.630;2022-10-19T01:42:13;12.50;99.90
26655;DHT22;14278;50.784;4.630;2022-10-19T01:44:53;12.50;99.90
26655;DHT22;14278;50.784;4.630;2022-10-19T01:47:39;12.40;99.90
26655;DHT22;14278;50.784;4.630;2022-10-19T01:52:37;12.60;99.90
26655;DHT22;14278;50.784;4.630;2022-10-19T01:55:06;12.40;99.90
26655;DHT22;14278;50.784;4.630;2022-10-19T01:57:37;12.20;99.90
26655;DHT22;14278;50.784;4.630;2022-10-19T02:00:05;12.30;99.90
26655;DHT22;14278;50.784;4.630;2022-10-19T02:02:37;12.30;99.90
26655;DHT22;14278;50.784;4.630;2022-10-19T02:05:06;12.40;99.90
26655;DHT22;14278;50.784;4.630;2022-10-19T02:07:33;12.40;99.90
26655;DHT22;14278;50.784;4.630;2022-10-19T02:10:00;12.30;99.90
26655;DHT22;14278;50.784;4.630;2022-10-19T02:12:27;12.20;99.90
26655;DHT22;14278;50.784;4.630;2022-10-19T02:14:57;12.20;99.90
26655;DHT22;14278;50.784;4.630;2022-10-19T02:17:27;12.20;99.90
26655;DHT22;14278;50.784;4.630;2022-10-19T02:19:55;12.30;99.90
26655;DHT22;14278;50.784;4.630;2022-10-19T02:22:22;12.10;99.90
26655;DHT22;14278;50.784;4.630;2022-10-19T02:24:48;11.90;99.90
26655;DHT22;14278;50.784;4.630;2022-10-19T02:27:13;11.70;99.90
26655;DHT22;14278;50.784;4.630;2022-10-19T02:29:40;11.90;99.90
26655;DHT22;14278;50.784;4.630;2022-10-19T02:32:06;12.00;99.90
26655;DHT22;14278;50.784;4.630;2022-10-19T02:34:32;11.90;99.90
26655;DHT22;14278;50.784;4.630;2022-10-19T02:36:59;12.00;99.90
26655;DHT22;14278;50.784;4.630;2022-10-19T02:39:25;11.80;99.90
26655;DHT22;14278;50.784;4.630;2022-10-19T02:44:26;11.60;99.90
26655;DHT22;14278;50.784;4.630;2022-10-19T02:47:01;11.40;99.90
26655;DHT22;14278;50.784;4.630;2022-10-19T02:49:28;11.30;99.90
26655;DHT22;14278;50.784;4.630;2022-10-19T02:52:03;11.20;99.90
26655;DHT22;14278;50.784;4.630;2022-10-19T02:54:29;11.30;99.90
26655;DHT22;14278;50.784;4.630;2022-10-19T02:56:55;11.20;99.90
26655;DHT22;14278;50.784;4.630;2022-10-19T02:59:22;11.00;99.90
26655;DHT22;14278;50.784;4.630;2022-10-19T03:01:48;11.10;99.90
26655;DHT22;14278;50.784;4.630;2022-10-19T03:04:14;11.20;99.90
26655;DHT22;14278;50.784;4.630;2022-10-19T03:06:40;11.50;99.90
26655;DHT22;14278;50.784;4.630;2022-10-19T03:09:05;11.50;99.90
26655;DHT22;14278;50.784;4.630;2022-10-19T03:11:33;11.50;99.90
26655;DHT22;14278;50.784;4.630;2022-10-19T03:13:58;11.80;99.90
26655;DHT22;14278;50.784;4.630;2022-10-19T03:16:24;11.90;99.90
26655;DHT22;14278;50.784;4.630;2022-10-19T03:18:50;12.00;99.90
26655;DHT22;14278;50.784;4.630;2022-10-19T03:21:16;12.00;99.90
26655;DHT22;14278;50.784;4.630;2022-10-19T03:23:43;11.60;99.90
26655;DHT22;14278;50.784;4.630;2022-10-19T03:26:12;11.80;99.90
26655;DHT22;14278;50.784;4.630;2022-10-19T03:28:38;11.70;99.90
26655;DHT22;14278;50.784;4.630;2022-10-19T03:31:04;11.50;99.90
26655;DHT22;14278;50.784;4.630;2022-10-19T03:33:30;11.30;99.90
26655;DHT22;14278;50.784;4.630;2022-10-19T03:36:25;11.50;99.90
26655;DHT22;14278;50.784;4.630;2022-10-19T03:38:53;11.30;99.90
26655;DHT22;14278;50.784;4.630;2022-10-19T03:41:21;11.30;99.90
26655;DHT22;14278;50.784;4.630;2022-10-19T03:43:47;11.70;99.90
26655;DHT22;14278;50.784;4.630;2022-10-19T03:46:13;11.60;99.90
26655;DHT22;14278;50.784;4.630;2022-10-19T03:48:39;11.70;99.90
26655;DHT22;14278;50.784;4.630;2022-10-19T03:51:09;11.80;99.90
26655;DHT22;14278;50.784;4.630;2022-10-19T03:53:35;11.90;99.90
26655;DHT22;14278;50.784;4.630;2022-10-19T03:56:07;12.10;99.90
26655;DHT22;14278;50.784;4.630;2022-10-19T03:58:36;11.40;99.90
26655;DHT22;14278;50.784;4.630;2022-10-19T04:01:07;11.50;99.90
26655;DHT22;14278;50.784;4.630;2022-10-19T04:03:34;11.60;99.90
26655;DHT22;14278;50.784;4.630;2022-10-19T04:06:16;11.70;99.90
26655;DHT22;14278;50.784;4.630;2022-10-19T04:08:43;11.40;99.90
26655;DHT22;14278;50.784;4.630;2022-10-19T04:11:14;11.60;99.90
26655;DHT22;14278;50.784;4.630;2022-10-19T04:13:40;11.50;99.90
26655;DHT22;14278;50.784;4.630;2022-10-19T04:16:06;11.50;99.90
26655;DHT22;14278;50.784;4.630;2022-10-19T04:18:32;11.20;99.90
26655;DHT22;14278;50.784;4.630;2022-10-19T04:21:03;11.50;99.90
26655;DHT22;14278;50.784;4.630;2022-10-19T04:23:34;11.40;99.90
26655;DHT22;14278;50.784;4.630;2022-10-19T04:26:02;11.50;99.90
26655;DHT22;14278;50.784;4.630;2022-10-19T04:28:28;11.50;99.90
26655;DHT22;14278;50.784;4.630;2022-10-19T04:30:54;11.50;99.90
26655;DHT22;14278;50.784;4.630;2022-10-19T04:33:21;11.40;99.90
26655;DHT22;14278;50.784;4.630;2022-10-19T04:35:46;11.40;99.90
26655;DHT22;14278;50.784;4.630;2022-10-19T04:38:13;11.40;99.90
26655;DHT22;14278;50.784;4.630;2022-10-19T04:40:38;11.30;99.90
26655;DHT22;14278;50.784;4.630;2022-10-19T04:43:04;11.10;99.90
26655;DHT22;14278;50.784;4.630;2022-10-19T04:45:33;11.20;99.90
26655;DHT22;14278;50.784;4.630;2022-10-19T04:47:59;11.00;99.90
26655;DHT22;14278;50.784;4.630;2022-10-19T04:50:25;11.10;99.90
26655;DHT22;14278;50.784;4.630;2022-10-19T04:52:51;11.20;99.90
26655;DHT22;14278;50.784;4.630;2022-10-19T04:55:17;11.20;99.90
26655;DHT22;14278;50.784;4.630;2022-10-19T04:57:43;11.30;99.90
26655;DHT22;14278;50.784;4.630;2022-10-19T05:00:09;11.20;99.90
26655;DHT22;14278;50.784;4.630;2022-10-19T05:02:36;11.10;99.90
26655;DHT22;14278;50.784;4.630;2022-10-19T05:05:01;11.10;99.90
26655;DHT22;14278;50.784;4.630;2022-10-19T05:07:27;10.90;99.90
26655;DHT22;14278;50.784;4.630;2022-10-19T05:09:53;11.10;99.90
26655;DHT22;14278;50.784;4.630;2022-10-19T05:12:18;10.70;99.90
26655;DHT22;14278;50.784;4.630;2022-10-19T05:14:45;10.50;99.90
26655;DHT22;14278;50.784;4.630;2022-10-19T05:17:10;10.60;99.90
26655;DHT22;14278;50.784;4.630;2022-10-19T05:19:37;10.70;99.90
26655;DHT22;14278;50.784;4.630;2022-10-19T05:22:02;10.70;99.90
26655;DHT22;14278;50.784;4.630;2022-10-19T05:24:28;10.80;99.90
26655;DHT22;14278;50.784;4.630;2022-10-19T05:26:57;10.80;99.90
26655;DHT22;14278;50.784;4.630;2022-10-19T05:29:23;10.90;99.90
26655;DHT22;14278;50.784;4.630;2022-10-19T05:31:49;10.90;99.90
26655;DHT22;14278;50.784;4.630;2022-10-19T05:34:15;11.00;99.90
26655;DHT22;14278;50.784;4.630;2022-10-19T05:36:40;10.90;99.90
26655;DHT22;14278;50.784;4.630;2022-10-19T05:39:10;10.90;99.90
26655;DHT22;14278;50.784;4.630;2022-10-19T05:41:37;10.60;99.90
26655;DHT22;14278;50.784;4.630;2022-10-19T05:44:03;10.30;99.90
26655;DHT22;14278;50.784;4.630;2022-10-19T05:46:31;10.60;99.90
26655;DHT22;14278;50.784;4.630;2022-10-19T05:48:57;10.40;99.90
26655;DHT22;14278;50.784;4.630;2022-10-19T05:51:25;10.30;99.90
26655;DHT22;14278;50.784;4.630;2022-10-19T05:53:52;10.60;99.90
26655;DHT22;14278;50.784;4.630;2022-10-19T05:56:23;11.00;99.90
26655;DHT22;14278;50.784;4.630;2022-10-19T05:58:49;10.80;99.90
26655;DHT22;14278;50.784;4.630;2022-10-19T06:01:16;10.70;99.90
26655;DHT22;14278;50.784;4.630;2022-10-19T06:03:49;10.40;99.90
26655;DHT22;14278;50.784;4.630;2022-10-19T06:06:15;10.20;99.90
26655;DHT22;14278;50.784;4.630;2022-10-19T06:08:41;10.10;99.90
26655;DHT22;14278;50.784;4.630;2022-10-19T06:11:10;10.10;99.90
26655;DHT22;14278;50.784;4.630;2022-10-19T06:13:36;9.90;99.90
26655;DHT22;14278;50.784;4.630;2022-10-19T06:16:04;10.00;99.90
26655;DHT22;14278;50.784;4.630;2022-10-19T06:18:30;10.20;99.90
26655;DHT22;14278;50.784;4.630;2022-10-19T06:21:01;10.40;99.90
26655;DHT22;14278;50.784;4.630;2022-10-19T06:23:27;10.20;99.90
26655;DHT22;14278;50.784;4.630;2022-10-19T06:25:52;9.90;99.90
26655;DHT22;14278;50.784;4.630;2022-10-19T06:28:18;9.90;99.90
26655;DHT22;14278;50.784;4.630;2022-10-19T06:30:44;10.30;99.90
26655;DHT22;14278;50.784;4.630;2022-10-19T06:33:10;10.60;99.90
26655;DHT22;14278;50.784;4.630;2022-10-19T06:35:35;10.70;99.90
26655;DHT22;14278;50.784;4.630;2022-10-19T06:38:02;11.00;99.90
26655;DHT22;14278;50.784;4.630;2022-10-19T06:40:29;11.10;99.90
26655;DHT22;14278;50.784;4.630;2022-10-19T06:42:55;11.10;99.90
26655;DHT22;14278;50.784;4.630;2022-10-19T06:45:21;11.20;99.90
26655;DHT22;14278;50.784;4.630;2022-10-19T06:47:46;10.80;99.90
26655;DHT22;14278;50.784;4.630;2022-10-19T06:50:12;10.80;99.90
26655;DHT22;14278;50.784;4.630;2022-10-19T06:52:38;10.30;99.90
26655;DHT22;14278;50.784;4.630;2022-10-19T06:55:05;10.50;99.90
26655;DHT22;14278;50.784;4.630;2022-10-19T06:57:31;10.80;99.90
26655;DHT22;14278;50.784;4.630;2022-10-19T06:59:57;11.10;99.90
26655;DHT22;14278;50.784;4.630;2022-10-19T07:02:23;10.70;99.90
26655;DHT22;14278;50.784;4.630;2022-10-19T07:04:49;11.10;99.90
26655;DHT22;14278;50.784;4.630;2022-10-19T07:07:15;11.20;99.90
26655;DHT22;14278;50.784;4.630;2022-10-19T07:09:41;11.50;99.90
26655;DHT22;14278;50.784;4.630;2022-10-19T07:12:06;11.70;99.90
26655;DHT22;14278;50.784;4.630;2022-10-19T07:14:35;12.00;99.90
26655;DHT22;14278;50.784;4.630;2022-10-19T07:17:05;11.60;99.90
26655;DHT22;14278;50.784;4.630;2022-10-19T07:19:31;11.70;99.90
26655;DHT22;14278;50.784;4.630;2022-10-19T07:21:57;11.40;99.90
26655;DHT22;14278;50.784;4.630;2022-10-19T07:24:23;11.70;99.90
26655;DHT22;14278;50.784;4.630;2022-10-19T07:26:49;11.60;99.90
26655;DHT22;14278;50.784;4.630;2022-10-19T07:29:15;11.90;99.90
26655;DHT22;14278;50.784;4.630;2022-10-19T07:31:41;11.90;99.90
26655;DHT22;14278;50.784;4.630;2022-10-19T07:34:10;12.00;99.90
26655;DHT22;14278;50.784;4.630;2022-10-19T07:36:37;12.00;99.90
26655;DHT22;14278;50.784;4.630;2022-10-19T07:39:06;12.30;99.90
26655;DHT22;14278;50.784;4.630;2022-10-19T07:41:32;12.60;99.90
26655;DHT22;14278;50.784;4.630;2022-10-19T07:44:00;12.60;99.90
26655;DHT22;14278;50.784;4.630;2022-10-19T07:46:27;12.00;99.90
26655;DHT22;14278;50.784;4.630;2022-10-19T07:49:00;11.90;99.90
26655;DHT22;14278;50.784;4.630;2022-10-19T07:51:26;12.00;99.90
26655;DHT22;14278;50.784;4.630;2022-10-19T07:53:52;12.20;99.90
26655;DHT22;14278;50.784;4.630;2022-10-19T07:56:21;12.40;99.90
26655;DHT22;14278;50.784;4.630;2022-10-19T07:58:49;12.50;99.90
26655;DHT22;14278;50.784;4.630;2022-10-19T08:01:17;12.60;99.90
26655;DHT22;14278;50.784;4.630;2022-10-19T08:03:43;12.50;99.90
26655;DHT22;14278;50.784;4.630;2022-10-19T08:06:12;12.50;99.90
26655;DHT22;14278;50.784;4.630;2022-10-19T08:08:38;12.50;99.90
26655;DHT22;14278;50.784;4.630;2022-10-19T08:11:09;12.50;99.90
26655;DHT22;14278;50.784;4.630;2022-10-19T08:13:35;12.40;99.90
26655;DHT22;14278;50.784;4.630;2022-10-19T08:16:01;12.20;99.90
26655;DHT22;14278;50.784;4.630;2022-10-19T08:18:28;12.20;99.90
26655;DHT22;14278;50.784;4.630;2022-10-19T08:20:54;12.40;99.90
26655;DHT22;14278;50.784;4.630;2022-10-19T08:23:19;12.50;99.90
26655;DHT22;14278;50.784;4.630;2022-10-19T08:25:45;12.60;99.90
26655;DHT22;14278;50.784;4.630;2022-10-19T08:28:11;12.40;99.90
26655;DHT22;14278;50.784;4.630;2022-10-19T08:30:37;12.30;99.90
26655;DHT22;14278;50.784;4.630;2022-10-19T08:33:03;12.40;99.90
26655;DHT22;14278;50.784;4.630;2022-10-19T08:35:31;12.50;99.90
26655;DHT22;14278;50.784;4.630;2022-10-19T08:37:57;12.10;99.90
26655;DHT22;14278;50.784;4.630;2022-10-19T08:40:27;12.30;99.90
26655;DHT22;14278;50.784;4.630;2022-10-19T08:43:01;12.50;99.90
26655;DHT22;14278;50.784;4.630;2022-10-19T08:45:51;12.70;99.90
26655;DHT22;14278;50.784;4.630;2022-10-19T08:50:53;12.70;99.90
26655;DHT22;14278;50.784;4.630;2022-10-19T08:53:57;13.10;99.90
26655;DHT22;14278;50.784;4.630;2022-10-19T08:56:33;13.00;99.90
26655;DHT22;14278;50.784;4.630;2022-10-19T08:59:14;13.40;99.90
26655;DHT22;14278;50.784;4.630;2022-10-19T09:01:54;13.40;99.90
26655;DHT22;14278;50.784;4.630;2022-10-19T09:04:41;13.30;99.90
26655;DHT22;14278;50.784;4.630;2022-10-19T09:07:34;13.60;99.90
26655;DHT22;14278;50.784;4.630;2022-10-19T09:15:17;14.10;99.90
26655;DHT22;14278;50.784;4.630;2022-10-19T09:17:43;13.80;99.90
26655;DHT22;14278;50.784;4.630;2022-10-19T09:20:16;13.90;99.90
26655;DHT22;14278;50.784;4.630;2022-10-19T09:22:42;14.20;99.90
26655;DHT22;14278;50.784;4.630;2022-10-19T09:25:13;14.40;99.90
26655;DHT22;14278;50.784;4.630;2022-10-19T09:27:40;14.40;99.90
26655;DHT22;14278;50.784;4.630;2022-10-19T09:30:17;14.40;99.90
26655;DHT22;14278;50.784;4.630;2022-10-19T09:32:44;14.50;99.90
26655;DHT22;14278;50.784;4.630;2022-10-19T09:37:45;13.70;99.90
26655;DHT22;14278;50.784;4.630;2022-10-19T09:40:22;13.60;99.90
26655;DHT22;14278;50.784;4.630;2022-10-19T09:42:49;13.60;99.90
26655;DHT22;14278;50.784;4.630;2022-10-19T09:45:42;13.90;99.90
26655;DHT22;14278;50.784;4.630;2022-10-19T09:48:19;14.10;99.90
26655;DHT22;14278;50.784;4.630;2022-10-19T09:50:59;13.90;99.90
26655;DHT22;14278;50.784;4.630;2022-10-19T09:53:26;13.90;99.90
26655;DHT22;14278;50.784;4.630;2022-10-19T09:56:06;14.30;99.90
26655;DHT22;14278;50.784;4.630;2022-10-19T09:58:33;14.40;99.90
26655;DHT22;14278;50.784;4.630;2022-10-19T10:01:01;14.40;99.90
26655;DHT22;14278;50.784;4.630;2022-10-19T10:03:36;14.50;99.90
26655;DHT22;14278;50.784;4.630;2022-10-19T10:06:22;14.50;99.90
26655;DHT22;14278;50.784;4.630;2022-10-19T10:08:52;14.40;99.90
26655;DHT22;14278;50.784;4.630;2022-10-19T10:11:38;14.50;99.90
26655;DHT22;14278;50.784;4.630;2022-10-19T10:14:22;14.40;99.90
26655;DHT22;14278;50.784;4.630;2022-10-19T10:16:56;14.50;99.90
26655;DHT22;14278;50.784;4.630;2022-10-19T10:19:27;14.70;99.90
26655;DHT22;14278;50.784;4.630;2022-10-19T10:21:55;14.60;99.90
26655;DHT22;14278;50.784;4.630;2022-10-19T10:24:32;14.70;99.90
26655;DHT22;14278;50.784;4.630;2022-10-19T10:27:01;14.90;99.90
26655;DHT22;14278;50.784;4.630;2022-10-19T10:29:29;15.00;99.90
26655;DHT22;14278;50.784;4.630;2022-10-19T10:34:43;15.20;99.90
26655;DHT22;14278;50.784;4.630;2022-10-19T10:37:37;15.20;99.90
26655;DHT22;14278;50.784;4.630;2022-10-19T10:40:04;15.40;99.90
26655;DHT22;14278;50.784;4.630;2022-10-19T10:42:41;15.40;99.90
26655;DHT22;14278;50.784;4.630;2022-10-19T10:45:38;15.10;99.90
26655;DHT22;14278;50.784;4.630;2022-10-19T10:50:37;15.20;99.90
26655;DHT22;14278;50.784;4.630;2022-10-19T10:53:05;15.40;99.90
26655;DHT22;14278;50.784;4.630;2022-10-19T10:55:33;15.50;99.90
26655;DHT22;14278;50.784;4.630;2022-10-19T10:58:13;15.50;99.90
26655;DHT22;14278;50.784;4.630;2022-10-19T11:00:40;15.80;99.90
26655;DHT22;14278;50.784;4.630;2022-10-19T11:03:20;15.90;99.90
26655;DHT22;14278;50.784;4.630;2022-10-19T11:05:50;16.20;99.90
26655;DHT22;14278;50.784;4.630;2022-10-19T11:08:49;16.80;99.90
26655;DHT22;14278;50.784;4.630;2022-10-19T11:11:41;17.70;99.90
26655;DHT22;14278;50.784;4.630;2022-10-19T11:17:06;19.70;99.90
26655;DHT22;14278;50.784;4.630;2022-10-19T11:19:40;20.00;99.90
26655;DHT22;14278;50.784;4.630;2022-10-19T11:22:15;20.70;99.90
26655;DHT22;14278;50.784;4.630;2022-10-19T11:30:31;22.10;99.90
26655;DHT22;14278;50.784;4.630;2022-10-19T11:34:05;22.10;99.90
26655;DHT22;14278;50.784;4.630;2022-10-19T11:36:24;22.30;99.90
26655;DHT22;14278;50.784;4.630;2022-10-19T11:41:52;21.70;99.90
26655;DHT22;14278;50.784;4.630;2022-10-19T11:44:37;21.50;99.90
26655;DHT22;14278;50.784;4.630;2022-10-19T11:47:13;21.10;99.90
26655;DHT22;14278;50.784;4.630;2022-10-19T11:52:18;20.40;99.90
26655;DHT22;14278;50.784;4.630;2022-10-19T12:00:57;19.00;99.90
26655;DHT22;14278;50.784;4.630;2022-10-19T12:06:16;19.40;99.90
26655;DHT22;14278;50.784;4.630;2022-10-19T12:14:17;18.30;99.90
26655;DHT22;14278;50.784;4.630;2022-10-19T12:16:50;18.40;99.90
26655;DHT22;14278;50.784;4.630;2022-10-19T12:19:21;18.70;99.90
26655;DHT22;14278;50.784;4.630;2022-10-19T12:21:50;18.60;99.90
26655;DHT22;14278;50.784;4.630;2022-10-19T12:24:23;19.00;99.90
26655;DHT22;14278;50.784;4.630;2022-10-19T12:26:51;18.50;99.90
26655;DHT22;14278;50.784;4.630;2022-10-19T12:29:28;19.00;99.90
26655;DHT22;14278;50.784;4.630;2022-10-19T12:31:56;19.50;99.90
26655;DHT22;14278;50.784;4.630;2022-10-19T12:37:25;19.60;99.90
26655;DHT22;14278;50.784;4.630;2022-10-19T12:48:44;19.40;99.90
26655;DHT22;14278;50.784;4.630;2022-10-19T12:51:12;19.20;99.90
26655;DHT22;14278;50.784;4.630;2022-10-19T12:53:41;19.30;99.90
26655;DHT22;14278;50.784;4.630;2022-10-19T13:01:17;19.40;99.90
26655;DHT22;14278;50.784;4.630;2022-10-19T13:03:43;19.20;99.90
26655;DHT22;14278;50.784;4.630;2022-10-19T13:06:44;19.10;99.90
26655;DHT22;14278;50.784;4.630;2022-10-19T13:09:06;19.00;99.90
26655;DHT22;14278;50.784;4.630;2022-10-19T13:11:33;18.80;99.90
26655;DHT22;14278;50.784;4.630;2022-10-19T13:19:17;18.30;99.90
26655;DHT22;14278;50.784;4.630;2022-10-19T13:27:19;18.50;99.90
26655;DHT22;14278;50.784;4.630;2022-10-19T13:29:48;18.50;99.90
26655;DHT22;14278;50.784;4.630;2022-10-19T13:32:39;18.60;99.90
26655;DHT22;14278;50.784;4.630;2022-10-19T13:43:17;18.30;99.90
26655;DHT22;14278;50.784;4.630;2022-10-19T13:45:53;18.10;99.90
26655;DHT22;14278;50.784;4.630;2022-10-19T13:54:12;18.10;99.90
26655;DHT22;14278;50.784;4.630;2022-10-19T13:57:04;18.00;99.90
26655;DHT22;14278;50.784;4.630;2022-10-19T13:59:36;17.80;99.90
26655;DHT22;14278;50.784;4.630;2022-10-19T14:02:43;17.70;99.90
26655;DHT22;14278;50.784;4.630;2022-10-19T14:11:05;17.40;99.90
26655;DHT22;14278;50.784;4.630;2022-10-19T14:13:36;17.20;99.90
26655;DHT22;14278;50.784;4.630;2022-10-19T14:16:03;17.20;99.90
26655;DHT22;14278;50.784;4.630;2022-10-19T14:18:33;17.10;99.90
26655;DHT22;14278;50.784;4.630;2022-10-19T14:21:04;17.30;99.90
26655;DHT22;14278;50.784;4.630;2022-10-19T14:23:33;17.20;99.90
26655;DHT22;14278;50.784;4.630;2022-10-19T14:28:32;17.30;99.90
26655;DHT22;14278;50.784;4.630;2022-10-19T14:31:07;17.40;99.90
26655;DHT22;14278;50.784;4.630;2022-10-19T14:33:45;17.40;99.90
26655;DHT22;14278;50.784;4.630;2022-10-19T14:36:20;17.40;99.90
26655;DHT22;14278;50.784;4.630;2022-10-19T14:38:49;17.60;99.90
26655;DHT22;14278;50.784;4.630;2022-10-19T14:43:54;17.70;99.90
26655;DHT22;14278;50.784;4.630;2022-10-19T14:46:23;17.80;99.90
26655;DHT22;14278;50.784;4.630;2022-10-19T14:48:50;17.80;99.90
26655;DHT22;14278;50.784;4.630;2022-10-19T14:51:52;17.30;99.90
26655;DHT22;14278;50.784;4.630;2022-10-19T14:54:37;17.20;99.90
26655;DHT22;14278;50.784;4.630;2022-10-19T14:57:15;17.10;99.90
26655;DHT22;14278;50.784;4.630;2022-10-19T14:59:47;17.20;99.90
26655;DHT22;14278;50.784;4.630;2022-10-19T15:02:31;16.90;99.90
26655;DHT22;14278;50.784;4.630;2022-10-19T15:04:59;17.10;99.90
26655;DHT22;14278;50.784;4.630;2022-10-19T15:07:41;17.10;99.90
26655;DHT22;14278;50.784;4.630;2022-10-19T15:10:23;16.90;99.90
26655;DHT22;14278;50.784;4.630;2022-10-19T15:12:55;16.90;99.90
26655;DHT22;14278;50.784;4.630;2022-10-19T15:15:25;16.70;99.90
26655;DHT22;14278;50.784;4.630;2022-10-19T15:17:54;16.70;99.90
26655;DHT22;14278;50.784;4.630;2022-10-19T15:20:29;16.80;99.90
26655;DHT22;14278;50.784;4.630;2022-10-19T15:22:57;16.70;99.90
26655;DHT22;14278;50.784;4.630;2022-10-19T15:25:32;16.50;99.90
26655;DHT22;14278;50.784;4.630;2022-10-19T15:28:20;16.60;99.90
26655;DHT22;14278;50.784;4.630;2022-10-19T15:30:59;16.80;99.90
26655;DHT22;14278;50.784;4.630;2022-10-19T15:33:27;16.50;99.90
26655;DHT22;14278;50.784;4.630;2022-10-19T15:36:04;16.80;99.90
26655;DHT22;14278;50.784;4.630;2022-10-19T15:38:30;16.70;99.90
26655;DHT22;14278;50.784;4.630;2022-10-19T15:40:58;17.00;99.90
26655;DHT22;14278;50.784;4.630;2022-10-19T15:46:05;16.80;99.90
26655;DHT22;14278;50.784;4.630;2022-10-19T15:53:51;16.70;99.90
26655;DHT22;14278;50.784;4.630;2022-10-19T15:56:19;16.50;99.90
26655;DHT22;14278;50.784;4.630;2022-10-19T15:58:48;16.40;99.90
26655;DHT22;14278;50.784;4.630;2022-10-19T16:01:20;16.50;99.90
26655;DHT22;14278;50.784;4.630;2022-10-19T16:03:48;16.50;99.90
26655;DHT22;14278;50.784;4.630;2022-10-19T16:06:15;16.30;99.90
26655;DHT22;14278;50.784;4.630;2022-10-19T16:08:41;16.20;99.90
26655;DHT22;14278;50.784;4.630;2022-10-19T16:11:11;16.10;99.90
26655;DHT22;14278;50.784;4.630;2022-10-19T16:13:37;16.30;99.90
26655;DHT22;14278;50.784;4.630;2022-10-19T16:16:05;16.20;99.90
26655;DHT22;14278;50.784;4.630;2022-10-19T16:18:32;16.20;99.90
26655;DHT22;14278;50.784;4.630;2022-10-19T16:20:58;16.20;99.90
26655;DHT22;14278;50.784;4.630;2022-10-19T16:23:24;16.00;99.90
26655;DHT22;14278;50.784;4.630;2022-10-19T16:25:50;16.00;99.90
26655;DHT22;14278;50.784;4.630;2022-10-19T16:28:18;15.80;99.90
26655;DHT22;14278;50.784;4.630;2022-10-19T16:30:44;15.90;99.90
26655;DHT22;14278;50.784;4.630;2022-10-19T16:33:10;15.90;99.90
26655;DHT22;14278;50.784;4.630;2022-10-19T16:35:37;16.10;99.90
26655;DHT22;14278;50.784;4.630;2022-10-19T16:38:06;15.90;99.90
26655;DHT22;14278;50.784;4.630;2022-10-19T16:40:33;15.80;99.90
26655;DHT22;14278;50.784;4.630;2022-10-19T16:43:00;15.60;99.90
26655;DHT22;14278;50.784;4.630;2022-10-19T16:45:27;15.50;99.90
26655;DHT22;14278;50.784;4.630;2022-10-19T16:47:53;15.60;99.90
26655;DHT22;14278;50.784;4.630;2022-10-19T16:50:19;15.70;99.90
26655;DHT22;14278;50.784;4.630;2022-10-19T16:52:45;15.60;99.90
26655;DHT22;14278;50.784;4.630;2022-10-19T16:55:11;15.50;99.90
26655;DHT22;14278;50.784;4.630;2022-10-19T16:57:38;15.70;99.90
26655;DHT22;14278;50.784;4.630;2022-10-19T17:00:05;15.60;99.90
26655;DHT22;14278;50.784;4.630;2022-10-19T17:02:31;15.70;99.90
26655;DHT22;14278;50.784;4.630;2022-10-19T17:04:57;15.70;99.90
26655;DHT22;14278;50.784;4.630;2022-10-19T17:07:23;15.60;99.90
26655;DHT22;14278;50.784;4.630;2022-10-19T17:09:49;15.50;99.90
26655;DHT22;14278;50.784;4.630;2022-10-19T17:12:15;15.40;99.90
26655;DHT22;14278;50.784;4.630;2022-10-19T17:14:42;15.50;99.90
26655;DHT22;14278;50.784;4.630;2022-10-19T17:17:09;15.50;99.90
26655;DHT22;14278;50.784;4.630;2022-10-19T17:19:36;15.50;99.90
26655;DHT22;14278;50.784;4.630;2022-10-19T17:22:02;15.40;99.90
26655;DHT22;14278;50.784;4.630;2022-10-19T17:24:30;15.30;99.90
26655;DHT22;14278;50.784;4.630;2022-10-19T17:26:56;15.10;99.90
26655;DHT22;14278;50.784;4.630;2022-10-19T17:29:25;15.10;99.90
26655;DHT22;14278;50.784;4.630;2022-10-19T17:31:51;15.20;99.90
26655;DHT22;14278;50.784;4.630;2022-10-19T17:34:17;15.00;99.90
26655;DHT22;14278;50.784;4.630;2022-10-19T17:36:44;15.10;99.90
26655;DHT22;14278;50.784;4.630;2022-10-19T17:39:14;15.10;99.90
26655;DHT22;14278;50.784;4.630;2022-10-19T17:41:42;14.90;99.90
26655;DHT22;14278;50.784;4.630;2022-10-19T17:44:08;15.00;99.90
26655;DHT22;14278;50.784;4.630;2022-10-19T17:46:34;15.10;99.90
26655;DHT22;14278;50.784;4.630;2022-10-19T17:49:00;15.00;99.90
26655;DHT22;14278;50.784;4.630;2022-10-19T17:51:29;14.70;99.90
26655;DHT22;14278;50.784;4.630;2022-10-19T17:53:57;14.80;99.90